الصفحة الرئيسية
METAR-TAF:

METAR-TAF

مطار :

Comodoro Rivadavia, الأرجنتين

دائرة عرض: 45-47S, خط طول: 067-30W, ارتفاع: 58 متر

مراقبة الطقس الحالي

تاريخ ووقت الإصدار 1ساعة و 11 دقيقة قبل الساعة 12:00UTC
ريح 19 عقدة من الغرب
درجة الحرارة 6°درجة مئوية
الرطوبة 61%
ضغط 999 hPa
الرؤية 10 كم أو أكثر
الغيوم لا تقل 1500 م ولا وجود لمزنة ركامية السحاب الأسود

METAR: SAVC 141200Z 27019KT CAVOK 06/M01 Q0999

زمن: 10:11 (13:11 UTC)

توقعات

تاريخ ووقت الإصدار 2ساعات و 11 دقيقة قبل الساعة 11:00UTC
التوقعات صالحة من14 الساعة 12 UTC إلى 15 الساعة 12 UTC
ريح 20 عقدة من الغرب تتزايد حتى 30 عقدة
الرؤية 10 كم أو أكثر
الغيوم لا تقل 1500 م ولا وجود لمزنة ركامية السحاب الأسود
أصبح
من 15 الساعة 06 UTC إلى 15 الساعة 08 UTC
الرؤية 10 كم أو أكثر
غيوم متفرقة على ارتفاع 3000 قدم
غيوم مفككة على ارتفاع 7000 قدم

TAF: SAVC 141100Z 1412/1512 27020G30KT CAVOK TX09/1418Z TN07/1512Z BECMG 1506/1508 9999 SCT030 BKN070

أرصاد الطقس والتوقعات من أكثر من 4000 مطار (تقارير الطقس للمطار METAR والتنبؤ بالطقس بالمطارTAF).

المحطات المتاحة هي النقط الصفراء والحمراء على الخريطة.

حرك المؤشر فوق النقطة لمعرفة اسم المحطة.

ثم انقر لمعرفة أرصاد وتوقعات الطقس.

لتغيير الخارطة: اضغط على الأزرار الخضراء مع رمز الصليب الأسود للتكبير. على الزر الأخضر مع شرطة للتصغير، أو على الأسهم الخضراء للخرائط المجاورة.


METAR-TAF: